createdAt,value
2023-04-03T00:00:00.289Z,5
2023-04-03T00:01:00.249Z,5
2023-04-03T00:02:00.279Z,5
2023-04-03T00:03:00.254Z,5
2023-04-03T00:04:00.274Z,5
2023-04-03T00:05:00.234Z,5
2023-04-03T00:06:00.253Z,4.9
2023-04-03T00:07:00.245Z,4.9
2023-04-03T00:08:00.249Z,4.9
2023-04-03T00:09:00.225Z,4.9
2023-04-03T00:10:00.259Z,4.9
2023-04-03T00:11:00.249Z,4.9
2023-04-03T00:12:00.245Z,4.9
2023-04-03T00:13:00.250Z,4.9
2023-04-03T00:14:00.262Z,4.9
2023-04-03T00:15:00.236Z,4.9
2023-04-03T00:16:00.260Z,4.9
2023-04-03T00:17:00.349Z,4.8
2023-04-03T00:18:00.301Z,4.8
2023-04-03T00:19:00.262Z,4.8
2023-04-03T00:20:00.265Z,4.8
2023-04-03T00:21:00.280Z,4.8
2023-04-03T00:22:00.242Z,4.8
2023-04-03T00:23:00.261Z,4.8
2023-04-03T00:24:00.253Z,4.8
2023-04-03T00:25:00.255Z,4.8
2023-04-03T00:26:00.266Z,4.8
2023-04-03T00:27:00.254Z,4.8
2023-04-03T00:28:00.274Z,4.6
2023-04-03T00:29:00.253Z,4.6
2023-04-03T00:30:00.289Z,4.6
2023-04-03T00:31:00.296Z,4.6
2023-04-03T00:32:00.275Z,4.6
2023-04-03T00:33:00.302Z,4.5
2023-04-03T00:34:00.268Z,4.5
2023-04-03T00:35:00.281Z,4.4
2023-04-03T00:36:00.493Z,4.4
2023-04-03T00:37:00.449Z,4.4
2023-04-03T00:38:00.287Z,4.4
2023-04-03T00:39:00.298Z,4.3
2023-04-03T00:40:00.272Z,4.2
2023-04-03T00:41:00.305Z,4.2
2023-04-03T00:42:00.283Z,4.2
2023-04-03T00:43:00.281Z,4.2
2023-04-03T00:44:00.322Z,4.2
2023-04-03T00:45:00.282Z,4.2
2023-04-03T00:46:00.412Z,4.2
2023-04-03T00:47:00.293Z,4.2
2023-04-03T00:48:00.384Z,4.2
2023-04-03T00:49:00.279Z,4.2
2023-04-03T00:50:00.290Z,4.2
2023-04-03T00:51:00.307Z,4.2
2023-04-03T00:52:00.280Z,4.2
2023-04-03T00:53:00.288Z,4.2
2023-04-03T00:54:00.301Z,4.1
2023-04-03T00:55:00.274Z,4.1
2023-04-03T00:56:00.310Z,4.1
2023-04-03T00:57:00.312Z,4.1
2023-04-03T00:58:00.296Z,4.1
2023-04-03T00:59:00.282Z,4.1
2023-04-03T01:00:00.376Z,4.1
2023-04-03T01:01:00.318Z,4.1
2023-04-03T01:02:00.523Z,4.1
2023-04-03T01:03:00.334Z,4
2023-04-03T01:04:00.310Z,4
2023-04-03T01:05:00.305Z,4
2023-04-03T01:06:00.327Z,4
2023-04-03T01:07:00.305Z,4
2023-04-03T01:08:00.330Z,4
2023-04-03T01:09:00.308Z,4
2023-04-03T01:10:00.302Z,4
2023-04-03T01:11:00.328Z,4
2023-04-03T01:12:00.336Z,4
2023-04-03T01:13:00.305Z,4
2023-04-03T01:14:00.320Z,4
2023-04-03T01:15:00.310Z,4
2023-04-03T01:16:00.452Z,4
2023-04-03T01:17:00.316Z,3.9
2023-04-03T01:18:00.332Z,3.9
2023-04-03T01:19:00.306Z,3.9
2023-04-03T01:20:00.432Z,3.9
2023-04-03T01:21:00.336Z,3.9
2023-04-03T01:22:00.311Z,3.9
2023-04-03T01:23:00.335Z,3.9
2023-04-03T01:24:00.334Z,3.9
2023-04-03T01:25:00.324Z,3.9
2023-04-03T01:26:00.331Z,3.9
2023-04-03T01:27:00.315Z,3.9
2023-04-03T01:28:00.334Z,3.9
2023-04-03T01:29:00.348Z,3.9
2023-04-03T01:30:00.314Z,3.9
2023-04-03T01:31:00.342Z,3.9
2023-04-03T01:32:00.347Z,3.9
2023-04-03T01:33:00.356Z,3.9
2023-04-03T01:34:00.340Z,3.9
2023-04-03T01:35:00.341Z,3.9
2023-04-03T01:36:00.368Z,3.9
2023-04-03T01:37:00.332Z,3.9
2023-04-03T01:38:00.353Z,3.9
2023-04-03T01:39:00.317Z,3.9
2023-04-03T01:40:00.357Z,3.9
2023-04-03T01:41:00.344Z,3.9
2023-04-03T01:42:00.341Z,3.9
2023-04-03T01:43:00.324Z,3.9
2023-04-03T01:44:00.360Z,3.9
2023-04-03T01:45:00.353Z,3.9
2023-04-03T01:46:00.360Z,3.9
2023-04-03T01:47:00.356Z,3.9
2023-04-03T01:48:00.383Z,3.9
2023-04-03T01:49:00.341Z,3.9
2023-04-03T01:50:00.375Z,3.8
2023-04-03T01:51:00.334Z,3.8
2023-04-03T01:52:00.340Z,3.8
2023-04-03T01:53:00.378Z,3.8
2023-04-03T01:54:00.365Z,3.8
2023-04-03T01:55:00.360Z,3.8
2023-04-03T01:56:00.339Z,3.8
2023-04-03T01:57:00.397Z,3.8
2023-04-03T01:58:00.365Z,3.8
2023-04-03T01:59:00.367Z,3.8
2023-04-03T02:00:00.369Z,3.8
2023-04-03T02:01:01.960Z,3.8
2023-04-03T02:02:01.614Z,3.8
2023-04-03T02:03:01.665Z,3.8
2023-04-03T02:04:01.833Z,3.8
2023-04-03T02:05:01.715Z,3.7
2023-04-03T02:06:01.594Z,3.7
2023-04-03T02:07:01.854Z,3.6
2023-04-03T02:08:01.655Z,3.6
2023-04-03T02:09:01.603Z,3.6
2023-04-03T02:10:01.611Z,3.6
2023-04-03T02:11:01.702Z,3.5
2023-04-03T02:12:01.602Z,3.5
2023-04-03T02:13:01.791Z,3.4
2023-04-03T02:14:01.878Z,3.4
2023-04-03T02:15:01.623Z,3.4
2023-04-03T02:16:01.784Z,3.4
2023-04-03T02:17:01.877Z,3.4
2023-04-03T02:18:01.692Z,3.4
2023-04-03T02:19:01.685Z,3.4
2023-04-03T02:20:01.613Z,3.3
2023-04-03T02:21:01.582Z,3.3
2023-04-03T02:22:01.589Z,3.3
2023-04-03T02:23:01.630Z,3.3
2023-04-03T02:24:01.625Z,3.3
2023-04-03T02:25:01.601Z,3.3
2023-04-03T02:26:01.615Z,3.2
2023-04-03T02:27:01.611Z,3.2
2023-04-03T02:28:01.596Z,3.2
2023-04-03T02:29:01.648Z,3.2
2023-04-03T02:30:01.592Z,3.2
2023-04-03T02:31:01.645Z,3.2
2023-04-03T02:32:01.595Z,3.2
2023-04-03T02:33:01.705Z,3.2
2023-04-03T02:34:01.624Z,3.2
2023-04-03T02:35:01.612Z,3.2
2023-04-03T02:36:01.619Z,3.2
2023-04-03T02:37:01.599Z,3.2
2023-04-03T02:38:01.647Z,3.2
2023-04-03T02:39:01.650Z,3.2
2023-04-03T02:40:01.643Z,3.2
2023-04-03T02:41:01.610Z,3.2
2023-04-03T02:42:01.600Z,3.2
2023-04-03T02:43:01.593Z,3.2
2023-04-03T02:44:01.633Z,3.2
2023-04-03T02:45:01.607Z,3.2
2023-04-03T02:46:01.665Z,3.2
2023-04-03T02:47:01.621Z,3.2
2023-04-03T02:48:01.690Z,3.2
2023-04-03T02:49:01.606Z,3.2
2023-04-03T02:50:01.635Z,3.2
2023-04-03T02:51:01.637Z,3.2
2023-04-03T02:52:01.617Z,3.2
2023-04-03T02:53:01.642Z,3.2
2023-04-03T02:54:01.609Z,3.2
2023-04-03T02:55:01.618Z,3.2
2023-04-03T02:56:01.647Z,3.2
2023-04-03T02:57:01.673Z,3.1
2023-04-03T02:58:01.642Z,3.2
2023-04-03T02:59:01.619Z,3.1
2023-04-03T03:00:01.618Z,3.1
2023-04-03T03:01:01.623Z,3.1
2023-04-03T03:02:01.760Z,3.1
2023-04-03T03:03:01.670Z,3.1
2023-04-03T03:04:01.656Z,3.1
2023-04-03T03:05:01.668Z,3.1
2023-04-03T03:06:01.622Z,3.1
2023-04-03T03:07:01.670Z,3
2023-04-03T03:08:01.675Z,3
2023-04-03T03:09:01.637Z,2.9
2023-04-03T03:10:01.662Z,2.9
2023-04-03T03:11:01.637Z,2.9
2023-04-03T03:12:01.666Z,2.9
2023-04-03T03:13:01.650Z,2.9
2023-04-03T03:14:01.634Z,2.9
2023-04-03T03:15:01.633Z,2.9
2023-04-03T03:16:01.716Z,2.9
2023-04-03T03:17:01.653Z,3
2023-04-03T03:18:01.662Z,2.9
2023-04-03T03:19:01.644Z,3
2023-04-03T03:20:01.682Z,3
2023-04-03T03:21:01.656Z,3
2023-04-03T03:22:01.663Z,3
2023-04-03T03:23:01.674Z,3
2023-04-03T03:24:01.640Z,3
2023-04-03T03:25:01.677Z,3
2023-04-03T03:26:01.702Z,3
2023-04-03T03:27:01.643Z,3
2023-04-03T03:28:01.654Z,3
2023-04-03T03:29:01.650Z,3
2023-04-03T03:30:01.684Z,3
2023-04-03T03:31:01.746Z,2.9
2023-04-03T03:32:01.654Z,2.9
2023-04-03T03:33:01.697Z,2.9
2023-04-03T03:34:01.648Z,2.9
2023-04-03T03:35:01.683Z,2.9
2023-04-03T03:36:01.709Z,2.9
2023-04-03T03:37:01.671Z,2.9
2023-04-03T03:38:01.690Z,2.9
2023-04-03T03:39:01.653Z,2.9
2023-04-03T03:40:01.662Z,2.9
2023-04-03T03:41:01.712Z,2.9
2023-04-03T03:42:01.657Z,2.9
2023-04-03T03:43:01.660Z,2.9
2023-04-03T03:44:01.665Z,2.9
2023-04-03T03:45:01.677Z,2.9
2023-04-03T03:46:01.683Z,2.9
2023-04-03T03:47:01.673Z,2.9
2023-04-03T03:48:01.676Z,2.9
2023-04-03T03:49:01.665Z,2.9
2023-04-03T03:50:01.692Z,2.9
2023-04-03T03:51:01.713Z,2.9
2023-04-03T03:52:01.693Z,2.9
2023-04-03T03:53:01.711Z,2.9
2023-04-03T03:54:01.693Z,2.9
2023-04-03T03:55:01.672Z,2.9
2023-04-03T03:56:01.705Z,2.9
2023-04-03T03:57:01.696Z,2.9
2023-04-03T03:58:00.153Z,2.9
2023-04-03T03:59:00.157Z,2.9
2023-04-03T04:00:00.179Z,2.9
2023-04-03T04:01:00.188Z,2.9
2023-04-03T04:02:00.258Z,2.9
2023-04-03T04:03:00.257Z,2.9
2023-04-03T04:04:00.322Z,2.9
2023-04-03T04:05:00.286Z,2.8
2023-04-03T04:06:00.208Z,2.9
2023-04-03T04:07:00.184Z,2.9
2023-04-03T04:08:00.192Z,2.8
2023-04-03T04:09:00.186Z,2.8
2023-04-03T04:10:00.199Z,2.8
2023-04-03T04:11:00.197Z,2.8
2023-04-03T04:12:00.177Z,2.8
2023-04-03T04:13:00.190Z,2.8
2023-04-03T04:14:00.180Z,2.8
2023-04-03T04:15:00.205Z,2.8
2023-04-03T04:16:00.207Z,2.8
2023-04-03T04:17:00.223Z,2.8
2023-04-03T04:18:00.325Z,2.8
2023-04-03T04:19:00.204Z,2.7
2023-04-03T04:20:00.181Z,2.7
2023-04-03T04:21:00.199Z,2.7
2023-04-03T04:22:00.212Z,2.6
2023-04-03T04:23:00.220Z,2.6
2023-04-03T04:24:00.217Z,2.6
2023-04-03T04:25:00.191Z,2.6
2023-04-03T04:26:00.339Z,2.6
2023-04-03T04:27:00.423Z,2.6
2023-04-03T04:28:00.342Z,2.6
2023-04-03T04:29:00.422Z,2.6
2023-04-03T04:30:00.466Z,2.6
2023-04-03T04:31:00.484Z,2.6
2023-04-03T04:32:00.422Z,2.5
2023-04-03T04:33:00.320Z,2.5
2023-04-03T04:34:00.200Z,2.5
2023-04-03T04:35:00.331Z,2.5
2023-04-03T04:36:00.461Z,2.4
2023-04-03T04:37:00.451Z,2.4
2023-04-03T04:38:00.212Z,2.4
2023-04-03T04:39:00.447Z,2.4
2023-04-03T04:40:00.290Z,2.3
2023-04-03T04:41:00.226Z,2.3
2023-04-03T04:42:00.223Z,2.3
2023-04-03T04:43:00.210Z,2.3
2023-04-03T04:44:00.214Z,2.3
2023-04-03T04:45:00.227Z,2.3
2023-04-03T04:46:00.302Z,2.3
2023-04-03T04:47:00.214Z,2.3
2023-04-03T04:48:00.287Z,2.3
2023-04-03T04:49:00.205Z,2.3
2023-04-03T04:50:00.256Z,2.3
2023-04-03T04:51:00.213Z,2.3
2023-04-03T04:52:00.221Z,2.3
2023-04-03T04:53:00.238Z,2.2
2023-04-03T04:54:00.241Z,2.2
2023-04-03T04:55:00.234Z,2.2
2023-04-03T04:56:00.239Z,2.2
2023-04-03T04:57:00.222Z,2.2
2023-04-03T04:58:00.238Z,2.2
2023-04-03T04:59:00.228Z,2.2
2023-04-03T05:00:00.253Z,2.2
2023-04-03T05:01:00.244Z,2.1
2023-04-03T05:02:00.248Z,2.1
2023-04-03T05:03:00.315Z,2.1
2023-04-03T05:04:00.244Z,2.1
2023-04-03T05:05:01.152Z,2.2
2023-04-03T05:06:00.239Z,2.2
2023-04-03T05:07:00.247Z,2.1
2023-04-03T05:08:00.232Z,2.1
2023-04-03T05:09:00.267Z,2.1
2023-04-03T05:10:00.263Z,2.1
2023-04-03T05:11:00.251Z,2.1
2023-04-03T05:12:00.238Z,2.1
2023-04-03T05:13:00.251Z,2.1
2023-04-03T05:14:00.244Z,2.1
2023-04-03T05:15:00.290Z,2.2
2023-04-03T05:16:00.306Z,2.2
2023-04-03T05:17:00.249Z,2.2
2023-04-03T05:18:00.333Z,2.2
2023-04-03T05:19:00.263Z,2.2
2023-04-03T05:20:00.276Z,2.2
2023-04-03T05:21:00.273Z,2.2
2023-04-03T05:22:00.248Z,2.2
2023-04-03T05:23:00.251Z,2.2
2023-04-03T05:24:00.264Z,2.2
2023-04-03T05:25:00.287Z,2.2
2023-04-03T05:26:00.272Z,2.2
2023-04-03T05:27:00.253Z,2.2
2023-04-03T05:28:00.259Z,2.2
2023-04-03T05:29:00.389Z,2.3
2023-04-03T05:30:00.287Z,2.3
2023-04-03T05:31:00.287Z,2.3
2023-04-03T05:32:00.298Z,2.3
2023-04-03T05:33:00.331Z,2.4
2023-04-03T05:34:00.280Z,2.4
2023-04-03T05:35:01.489Z,2.3
2023-04-03T05:36:00.300Z,2.3
2023-04-03T05:37:00.259Z,2.2
2023-04-03T05:38:00.288Z,2.3
2023-04-03T05:39:00.284Z,2.3
2023-04-03T05:40:00.297Z,2.3
2023-04-03T05:41:00.265Z,2.4
2023-04-03T05:42:00.262Z,2.4
2023-04-03T05:43:00.289Z,2.4
2023-04-03T05:44:00.267Z,2.4
2023-04-03T05:45:00.288Z,2.4
2023-04-03T05:46:00.342Z,2.4
2023-04-03T05:47:00.267Z,2.4
2023-04-03T05:48:00.333Z,2.3
2023-04-03T05:49:00.277Z,2.3
2023-04-03T05:50:00.308Z,2.4
2023-04-03T05:51:00.291Z,2.3
2023-04-03T05:52:00.307Z,2.3
2023-04-03T05:53:00.273Z,2.3
2023-04-03T05:54:00.302Z,2.3
2023-04-03T05:55:00.293Z,2.3
2023-04-03T05:56:00.283Z,2.3
2023-04-03T05:57:00.341Z,2.2
2023-04-03T05:58:00.293Z,2.2
2023-04-03T05:59:00.310Z,2.2
2023-04-03T06:00:00.348Z,2.2
2023-04-03T06:01:00.297Z,2.2
2023-04-03T06:02:00.317Z,2.2
2023-04-03T06:03:00.406Z,2.3
2023-04-03T06:04:00.497Z,2.3
2023-04-03T06:05:00.372Z,2.3
2023-04-03T06:06:00.314Z,2.3
2023-04-03T06:07:00.326Z,2.3
2023-04-03T06:08:00.296Z,2.3
2023-04-03T06:09:01.994Z,2.3
2023-04-03T06:10:00.320Z,2.4
2023-04-03T06:11:00.302Z,2.4
2023-04-03T06:12:00.318Z,2.4
2023-04-03T06:13:00.298Z,2.4
2023-04-03T06:14:00.319Z,2.4
2023-04-03T06:15:00.320Z,2.4
2023-04-03T06:16:00.323Z,2.4
2023-04-03T06:17:00.335Z,2.4
2023-04-03T06:18:00.334Z,2.4
2023-04-03T06:19:00.325Z,2.4
2023-04-03T06:20:00.311Z,2.4
2023-04-03T06:21:00.322Z,2.4
2023-04-03T06:22:00.308Z,2.4
2023-04-03T06:23:00.321Z,2.4
2023-04-03T06:24:00.332Z,2.5
2023-04-03T06:25:00.515Z,2.4
2023-04-03T06:26:00.310Z,2.4
2023-04-03T06:27:00.319Z,2.4
2023-04-03T06:28:00.330Z,2.4
2023-04-03T06:29:00.337Z,2.5
2023-04-03T06:30:00.346Z,2.5
2023-04-03T06:31:00.359Z,2.5
2023-04-03T06:32:00.337Z,2.6
2023-04-03T06:33:00.342Z,2.6
2023-04-03T06:34:00.339Z,2.6
2023-04-03T06:35:00.339Z,2.6
2023-04-03T06:36:00.385Z,2.6
2023-04-03T06:37:00.320Z,2.6
2023-04-03T06:38:00.333Z,2.6
2023-04-03T06:39:00.555Z,2.7
2023-04-03T06:40:00.354Z,2.7
2023-04-03T06:41:00.324Z,2.7
2023-04-03T06:42:00.372Z,2.8
2023-04-03T06:43:00.337Z,2.8
2023-04-03T06:44:00.345Z,2.8
2023-04-03T06:45:00.347Z,2.8
2023-04-03T06:46:00.366Z,2.8
2023-04-03T06:47:00.357Z,2.8
2023-04-03T06:48:00.346Z,2.8
2023-04-03T06:49:00.333Z,2.9
2023-04-03T06:50:00.377Z,2.9
2023-04-03T06:51:00.354Z,2.9
2023-04-03T06:52:01.730Z,2.9
2023-04-03T06:53:00.346Z,2.9
2023-04-03T06:54:00.380Z,3
2023-04-03T06:55:00.376Z,3.1
2023-04-03T06:56:00.353Z,3.1
2023-04-03T06:57:00.469Z,3.1
2023-04-03T06:58:00.352Z,3.1
2023-04-03T06:59:00.369Z,3.1
2023-04-03T07:00:00.347Z,3.2
2023-04-03T07:01:00.349Z,3.2
2023-04-03T07:02:00.402Z,3.2
2023-04-03T07:03:00.395Z,3.2
2023-04-03T07:04:00.386Z,3.2
2023-04-03T07:05:00.400Z,3.2
2023-04-03T07:06:00.380Z,3.3
2023-04-03T07:07:00.370Z,3.3
2023-04-03T07:08:00.381Z,3.3
2023-04-03T07:09:00.354Z,3.4
2023-04-03T07:10:00.376Z,3.4
2023-04-03T07:11:00.356Z,3.4
2023-04-03T07:12:00.378Z,3.4
2023-04-03T07:13:00.358Z,3.4
2023-04-03T07:14:00.358Z,3.4
2023-04-03T07:15:00.362Z,3.4
2023-04-03T07:16:00.387Z,3.4
2023-04-03T07:17:00.388Z,3.4
2023-04-03T07:18:00.371Z,3.4
2023-04-03T07:19:00.365Z,3.4
2023-04-03T07:20:00.531Z,3.4
2023-04-03T07:21:00.380Z,3.4
2023-04-03T07:22:00.388Z,3.5
2023-04-03T07:23:02.170Z,3.5
2023-04-03T07:24:00.362Z,3.6
2023-04-03T07:25:00.366Z,3.6
2023-04-03T07:26:00.380Z,3.6
2023-04-03T07:27:00.391Z,3.7
2023-04-03T07:28:00.382Z,3.8
2023-04-03T07:29:00.439Z,3.8
2023-04-03T07:30:00.395Z,3.8
2023-04-03T07:31:00.377Z,3.8
2023-04-03T07:32:00.537Z,3.8
2023-04-03T07:33:00.392Z,3.7
2023-04-03T07:34:00.397Z,3.7
2023-04-03T07:35:01.718Z,3.8
2023-04-03T07:36:00.470Z,3.7
2023-04-03T07:37:00.405Z,3.7
2023-04-03T07:38:00.381Z,3.8
2023-04-03T07:39:00.385Z,3.8
2023-04-03T07:40:00.384Z,3.8
2023-04-03T07:41:00.408Z,3.8
2023-04-03T07:42:00.404Z,3.9
2023-04-03T07:43:00.397Z,3.9
2023-04-03T07:44:00.392Z,3.9
2023-04-03T07:45:00.393Z,3.9
2023-04-03T07:46:00.443Z,3.9
2023-04-03T07:47:00.414Z,3.9
2023-04-03T07:48:00.424Z,3.9
2023-04-03T07:49:00.416Z,3.9
2023-04-03T07:50:00.398Z,4
2023-04-03T07:51:00.414Z,4.1
2023-04-03T07:52:00.415Z,4.1
2023-04-03T07:53:00.410Z,4.1
2023-04-03T07:54:00.406Z,4.2
2023-04-03T07:55:00.401Z,4.2
2023-04-03T07:56:00.424Z,4.2
2023-04-03T07:57:00.445Z,4.2
2023-04-03T07:58:00.403Z,4.2
2023-04-03T07:59:00.432Z,4.2
2023-04-03T08:00:00.404Z,4.4
2023-04-03T08:01:00.413Z,4.4
2023-04-03T08:02:00.448Z,4.4
2023-04-03T08:03:00.539Z,4.4
2023-04-03T08:04:00.580Z,4.4
2023-04-03T08:05:00.520Z,4.4
2023-04-03T08:06:00.414Z,4.4
2023-04-03T08:07:00.450Z,4.4
2023-04-03T08:08:00.414Z,4.4
2023-04-03T08:09:00.453Z,4.4
2023-04-03T08:10:00.423Z,4.3
2023-04-03T08:11:00.423Z,4.4
2023-04-03T08:12:00.442Z,4.4
2023-04-03T08:13:00.425Z,4.4
2023-04-03T08:14:00.434Z,4.5
2023-04-03T08:15:00.436Z,4.5
2023-04-03T08:16:00.438Z,4.6
2023-04-03T08:17:00.568Z,4.5
2023-04-03T08:18:00.531Z,4.5
2023-04-03T08:19:00.426Z,4.6
2023-04-03T08:20:00.440Z,4.6
2023-04-03T08:21:00.435Z,4.6
2023-04-03T08:22:00.445Z,4.7
2023-04-03T08:23:00.435Z,4.8
2023-04-03T08:24:00.431Z,4.9
2023-04-03T08:25:00.447Z,4.9
2023-04-03T08:26:00.440Z,4.8
2023-04-03T08:27:00.451Z,4.8
2023-04-03T08:28:00.430Z,4.9
2023-04-03T08:29:00.448Z,4.9
2023-04-03T08:30:00.454Z,4.9
2023-04-03T08:31:00.507Z,4.9
2023-04-03T08:32:00.467Z,4.9
2023-04-03T08:33:00.508Z,5
2023-04-03T08:34:00.475Z,5.1
2023-04-03T08:35:00.484Z,5.1
2023-04-03T08:36:00.478Z,5.1
2023-04-03T08:37:00.478Z,5.2
2023-04-03T08:38:00.464Z,5.3
2023-04-03T08:39:00.470Z,5.4
2023-04-03T08:40:00.464Z,5.4
2023-04-03T08:41:00.463Z,5.4
2023-04-03T08:42:00.492Z,5.5
2023-04-03T08:43:00.470Z,5.6
2023-04-03T08:44:00.621Z,5.5
2023-04-03T08:45:00.455Z,5.6
2023-04-03T08:46:00.471Z,5.6
2023-04-03T08:47:00.485Z,5.7
2023-04-03T08:48:00.489Z,5.8
2023-04-03T08:49:00.499Z,5.8
2023-04-03T08:50:00.495Z,5.9
2023-04-03T08:51:03.193Z,5.8
2023-04-03T08:52:00.486Z,5.8
2023-04-03T08:53:00.475Z,5.8
2023-04-03T08:54:00.469Z,5.9
2023-04-03T08:55:00.466Z,5.8
2023-04-03T08:56:00.476Z,5.8
2023-04-03T08:57:00.535Z,5.8
2023-04-03T08:58:00.468Z,5.8
2023-04-03T08:59:00.472Z,5.8
2023-04-03T09:00:00.493Z,5.8
2023-04-03T09:01:00.480Z,5.9
2023-04-03T09:02:00.541Z,6
2023-04-03T09:03:00.567Z,6.1
2023-04-03T09:04:00.510Z,6.1
2023-04-03T09:05:00.497Z,6.2
2023-04-03T09:06:00.480Z,6.2
2023-04-03T09:07:00.498Z,6.2
2023-04-03T09:08:00.500Z,6.2
2023-04-03T09:09:00.484Z,6.2
2023-04-03T09:10:00.491Z,6.3
2023-04-03T09:11:00.514Z,6.3
2023-04-03T09:12:00.507Z,6.2
2023-04-03T09:13:00.501Z,6.2
2023-04-03T09:14:00.497Z,6.2
2023-04-03T09:15:00.492Z,6.1
2023-04-03T09:16:00.519Z,6.1
2023-04-03T09:17:00.536Z,6.2
2023-04-03T09:18:00.557Z,6.3
2023-04-03T09:19:00.514Z,6.4
2023-04-03T09:20:00.498Z,6.4
2023-04-03T09:21:00.505Z,6.5
2023-04-03T09:22:00.523Z,6.6
2023-04-03T09:23:00.519Z,6.6
2023-04-03T09:24:00.501Z,6.6
2023-04-03T09:25:00.512Z,6.6
2023-04-03T09:26:00.508Z,6.7
2023-04-03T09:27:00.542Z,6.7
2023-04-03T09:28:00.510Z,6.8
2023-04-03T09:29:00.501Z,6.9
2023-04-03T09:30:00.514Z,6.9
2023-04-03T09:31:00.531Z,6.9
2023-04-03T09:32:00.528Z,6.8
2023-04-03T09:33:00.580Z,6.8
2023-04-03T09:34:00.521Z,6.8
2023-04-03T09:35:03.992Z,6.9
2023-04-03T09:36:00.519Z,7
2023-04-03T09:37:00.525Z,6.9
2023-04-03T09:38:00.522Z,7
2023-04-03T09:39:00.509Z,7.1
2023-04-03T09:40:00.555Z,7.1
2023-04-03T09:41:00.512Z,7.1
2023-04-03T09:42:00.536Z,7.1
2023-04-03T09:43:01.540Z,7.1
2023-04-03T09:44:00.546Z,7.1
2023-04-03T09:45:00.516Z,7.1
2023-04-03T09:46:00.522Z,7.1
2023-04-03T09:47:00.572Z,7.1
2023-04-03T09:48:00.594Z,7
2023-04-03T09:49:09.046Z,6.9
2023-04-03T09:50:00.522Z,6.9
2023-04-03T09:51:00.559Z,6.9
2023-04-03T09:52:00.520Z,6.8
2023-04-03T09:53:00.544Z,6.8
2023-04-03T09:54:00.545Z,6.7
2023-04-03T09:55:00.519Z,6.7
2023-04-03T09:56:00.568Z,6.6
2023-04-03T09:57:00.558Z,6.6
2023-04-03T09:58:00.502Z,6.8
2023-04-03T09:59:00.492Z,6.7
2023-04-03T10:00:00.485Z,6.8
2023-04-03T10:01:00.465Z,6.8
2023-04-03T10:02:00.385Z,6.9
2023-04-03T10:03:00.427Z,7
2023-04-03T10:04:00.401Z,7.1
2023-04-03T10:05:09.329Z,7.1
2023-04-03T10:06:00.257Z,7.2
2023-04-03T10:07:00.230Z,7.3
2023-04-03T10:08:04.085Z,7.2
2023-04-03T10:09:00.198Z,7.3
2023-04-03T10:10:00.194Z,7.3
2023-04-03T10:11:00.172Z,7.4
2023-04-03T10:12:00.238Z,7.4
2023-04-03T10:13:00.149Z,7.3
2023-04-03T10:14:00.243Z,7
2023-04-03T10:15:00.268Z,6.8
2023-04-03T10:16:00.284Z,6.8
2023-04-03T10:17:00.347Z,6.8
2023-04-03T10:18:02.755Z,6.8
2023-04-03T10:19:00.224Z,6.8
2023-04-03T10:20:00.295Z,6.8
2023-04-03T10:21:00.346Z,6.7
2023-04-03T10:22:00.238Z,6.7
2023-04-03T10:23:00.253Z,6.7
2023-04-03T10:24:00.308Z,6.6
2023-04-03T10:25:00.294Z,6.6
2023-04-03T10:26:00.423Z,6.6
2023-04-03T10:27:00.364Z,6.7
2023-04-03T10:28:00.347Z,6.8
2023-04-03T10:29:00.152Z,6.9
2023-04-03T10:30:00.233Z,7
2023-04-03T10:31:00.429Z,7
2023-04-03T10:32:00.284Z,6.9
2023-04-03T10:33:00.371Z,6.9
2023-04-03T10:34:00.369Z,6.9
2023-04-03T10:35:05.073Z,6.9
2023-04-03T10:36:00.462Z,6.8
2023-04-03T10:37:00.419Z,6.8
2023-04-03T10:38:00.229Z,6.8
2023-04-03T10:39:00.405Z,6.8
2023-04-03T10:40:00.154Z,6.8
2023-04-03T10:41:00.465Z,6.9
2023-04-03T10:42:15.237Z,6.8
2023-04-03T10:43:00.145Z,6.8
2023-04-03T10:44:00.170Z,6.7
2023-04-03T10:45:00.172Z,6.6
2023-04-03T10:46:00.200Z,6.7
2023-04-03T10:47:00.162Z,6.8
2023-04-03T10:48:00.249Z,6.8
2023-04-03T10:49:00.157Z,6.8
2023-04-03T10:50:00.411Z,6.6
2023-04-03T10:51:00.173Z,6.6
2023-04-03T10:52:00.165Z,6.7
2023-04-03T10:53:00.159Z,6.6
2023-04-03T10:54:00.159Z,6.6
2023-04-03T10:55:00.157Z,6.7
2023-04-03T10:56:00.196Z,6.7
2023-04-03T10:57:10.945Z,6.8
2023-04-03T10:58:00.226Z,6.8
2023-04-03T10:59:00.162Z,6.9
2023-04-03T11:00:00.195Z,7
2023-04-03T11:01:00.189Z,7.1
2023-04-03T11:02:00.408Z,7.1
2023-04-03T11:03:00.278Z,7.1
2023-04-03T11:04:00.255Z,7.2
2023-04-03T11:05:00.197Z,7.2
2023-04-03T11:06:00.186Z,7.2
2023-04-03T11:07:00.176Z,7.2
2023-04-03T11:08:00.192Z,7.3
2023-04-03T11:09:00.188Z,7.2
2023-04-03T11:10:00.175Z,7.2
2023-04-03T11:11:00.216Z,7.1
2023-04-03T11:12:00.181Z,6.9
2023-04-03T11:13:00.189Z,6.9
2023-04-03T11:14:00.203Z,6.8
2023-04-03T11:15:00.178Z,6.6
2023-04-03T11:16:00.295Z,6.6
2023-04-03T11:17:00.253Z,6.5
2023-04-03T11:18:00.333Z,6.5
2023-04-03T11:19:00.189Z,6.5
2023-04-03T11:20:00.194Z,6.4
2023-04-03T11:21:00.208Z,6.5
2023-04-03T11:22:00.212Z,6.5
2023-04-03T11:23:00.184Z,6.5
2023-04-03T11:24:00.198Z,6.5
2023-04-03T11:25:00.194Z,6.5
2023-04-03T11:26:00.204Z,6.5
2023-04-03T11:27:00.188Z,6.6
2023-04-03T11:28:00.193Z,6.8
2023-04-03T11:29:00.272Z,6.9
2023-04-03T11:30:00.202Z,6.9
2023-04-03T11:31:00.218Z,7.1
2023-04-03T11:32:00.272Z,7.1
2023-04-03T11:33:00.267Z,7.1
2023-04-03T11:34:00.200Z,7.1
2023-04-03T11:35:00.243Z,7.1
2023-04-03T11:36:00.262Z,7
2023-04-03T11:37:00.274Z,7
2023-04-03T11:38:00.219Z,7.1
2023-04-03T11:39:00.216Z,7.2
2023-04-03T11:40:00.226Z,7.2
2023-04-03T11:41:00.205Z,7.3
2023-04-03T11:42:12.589Z,7.4
2023-04-03T11:43:00.208Z,7.5
2023-04-03T11:44:00.245Z,7.4
2023-04-03T11:45:00.226Z,7.2
2023-04-03T11:46:00.208Z,7.2
2023-04-03T11:47:00.233Z,7.3
2023-04-03T11:48:02.715Z,7.4
2023-04-03T11:49:00.223Z,7.4
2023-04-03T11:50:00.261Z,7.3
2023-04-03T11:51:00.222Z,7.2
2023-04-03T11:52:00.224Z,7.2
2023-04-03T11:53:00.212Z,7.2
2023-04-03T11:54:00.259Z,7.1
2023-04-03T11:55:00.228Z,7
2023-04-03T11:56:00.221Z,7
2023-04-03T11:57:00.254Z,7
2023-04-03T11:58:00.250Z,7.1
2023-04-03T11:59:00.239Z,7.1
2023-04-03T12:00:00.238Z,7
2023-04-03T12:01:00.230Z,7.1
2023-04-03T12:02:00.238Z,7.1
2023-04-03T12:03:00.531Z,7.1
2023-04-03T12:04:00.296Z,7.1
2023-04-03T12:05:00.233Z,7.1
2023-04-03T12:06:00.235Z,7.2
2023-04-03T12:07:00.218Z,7.2
2023-04-03T12:08:00.223Z,7.2
2023-04-03T12:09:00.252Z,7.1
2023-04-03T12:10:00.229Z,7.2
2023-04-03T12:11:00.229Z,7.2
2023-04-03T12:12:00.251Z,7.1
2023-04-03T12:13:00.235Z,7.1
2023-04-03T12:14:00.277Z,7.1
2023-04-03T12:15:00.227Z,7.1
2023-04-03T12:16:00.256Z,7.1
2023-04-03T12:17:00.400Z,7.1
2023-04-03T12:18:00.300Z,7.2
2023-04-03T12:19:00.254Z,7.2
2023-04-03T12:20:00.269Z,7.3
2023-04-03T12:21:00.260Z,7.4
2023-04-03T12:22:00.248Z,7.4
2023-04-03T12:23:00.241Z,7.4
2023-04-03T12:24:00.292Z,7.4
2023-04-03T12:25:00.251Z,7.4
2023-04-03T12:26:00.239Z,7.3
2023-04-03T12:27:00.272Z,7.2
2023-04-03T12:28:00.259Z,7.3
2023-04-03T12:29:00.270Z,7.4
2023-04-03T12:30:00.243Z,7.6
2023-04-03T12:31:00.294Z,7.8
2023-04-03T12:32:00.262Z,7.8
2023-04-03T12:33:11.743Z,7.8
2023-04-03T12:34:00.351Z,7.8
2023-04-03T12:35:00.249Z,7.8
2023-04-03T12:36:01.879Z,7.8
2023-04-03T12:37:00.273Z,7.8
2023-04-03T12:38:00.255Z,7.9
2023-04-03T12:39:00.280Z,7.9
2023-04-03T12:40:00.292Z,8
2023-04-03T12:41:00.257Z,8.1
2023-04-03T12:42:00.281Z,8.1
2023-04-03T12:43:02.259Z,8.1
2023-04-03T12:44:00.334Z,8.1
2023-04-03T12:45:00.290Z,8
2023-04-03T12:46:00.519Z,8
2023-04-03T12:47:00.318Z,8
2023-04-03T12:48:00.353Z,7.9
2023-04-03T12:49:00.295Z,7.9
2023-04-03T12:50:00.279Z,7.8
2023-04-03T12:51:00.287Z,7.8
2023-04-03T12:52:00.295Z,7.7
2023-04-03T12:53:00.272Z,7.6
2023-04-03T12:54:00.397Z,7.6
2023-04-03T12:55:00.277Z,7.5
2023-04-03T12:56:00.305Z,7.4
2023-04-03T12:57:00.391Z,7.2
2023-04-03T12:58:00.276Z,7.3
2023-04-03T12:59:00.288Z,7.2
2023-04-03T13:00:00.284Z,7.2
2023-04-03T13:01:00.300Z,7.2
2023-04-03T13:02:00.405Z,7.2
2023-04-03T13:03:00.353Z,7.2
2023-04-03T13:04:00.464Z,7.1
2023-04-03T13:05:00.327Z,7.2
2023-04-03T13:06:00.306Z,7.2
2023-04-03T13:07:00.306Z,7.2
2023-04-03T13:08:00.290Z,7.2
2023-04-03T13:09:00.297Z,7.3
2023-04-03T13:10:00.305Z,7.4
2023-04-03T13:11:00.313Z,7.4
2023-04-03T13:12:00.327Z,7.4
2023-04-03T13:13:00.296Z,7.4
2023-04-03T13:14:00.440Z,7.4
2023-04-03T13:15:00.325Z,7.5
2023-04-03T13:16:00.338Z,7.6
2023-04-03T13:17:00.309Z,7.6
2023-04-03T13:18:00.343Z,7.6
2023-04-03T13:19:00.299Z,7.6
2023-04-03T13:20:00.312Z,7.5
2023-04-03T13:21:00.324Z,7.4
2023-04-03T13:22:00.352Z,7.4
2023-04-03T13:23:00.328Z,7.5
2023-04-03T13:24:13.834Z,7.5
2023-04-03T13:25:02.667Z,7.6
2023-04-03T13:26:00.338Z,7.6
2023-04-03T13:27:00.335Z,7.6
2023-04-03T13:28:10.374Z,7.6
2023-04-03T13:29:00.328Z,7.6
2023-04-03T13:30:00.320Z,7.6
2023-04-03T13:31:00.339Z,7.6
2023-04-03T13:32:00.401Z,7.6
2023-04-03T13:33:00.380Z,7.6
2023-04-03T13:34:00.336Z,7.6
2023-04-03T13:35:08.132Z,7.6
2023-04-03T13:36:00.371Z,7.6
2023-04-03T13:37:00.327Z,7.6
2023-04-03T13:38:00.327Z,7.5
2023-04-03T13:39:00.330Z,7.4
2023-04-03T13:40:00.352Z,7.5
2023-04-03T13:41:00.346Z,7.6
2023-04-03T13:42:00.353Z,7.6
2023-04-03T13:43:00.329Z,7.6
2023-04-03T13:44:10.462Z,7.7
2023-04-03T13:45:00.328Z,7.6
2023-04-03T13:46:00.397Z,7.6
2023-04-03T13:47:00.331Z,7.6
2023-04-03T13:48:00.876Z,7.8
2023-04-03T13:49:00.382Z,7.8